Time;durP1;ratioP1;P1;durP2;ratioP2;P2;SDS_P1;SDS_P2;PMS_P1;PMS_P2;Temp;Humidity;BMP_temperature;BMP_pressure;BME280_temperature;BME280_humidity;BME280_pressure;Samples;Min_cycle;Max_cycle;Signal;HPM_P1;HPM_P2
2022/08/13 00:00:52;;;;;;;2.10;1.90;;;13.20;58.50;;;;;;4178309;28;21004;-71
2022/08/13 00:02:52;;;;;;;2.67;2.00;;;13.20;58.20;;;;;;4179337;28;20212;-72
2022/08/13 00:05:03;;;;;;;1.93;1.83;;;13.20;58.40;;;;;;4178927;28;20180;-71
2022/08/13 00:07:10;;;;;;;2.40;1.70;;;13.10;58.70;;;;;;4179253;28;20190;-71
2022/08/13 00:09:14;;;;;;;2.17;2.07;;;13.10;58.80;;;;;;4179265;28;20637;-73
2022/08/13 00:12:56;;;;;;;3.90;1.77;;;13.10;58.80;;;;;;4176917;28;20230;-72
2022/08/13 00:13:36;;;;;;;1.53;1.43;;;13.10;58.80;;;;;;4178811;28;20226;-72
2022/08/13 00:15:43;;;;;;;3.27;1.67;;;13.00;59.10;;;;;;4177689;28;20188;-71
2022/08/13 00:17:45;;;;;;;1.93;1.73;;;12.90;59.30;;;;;;4178988;28;20175;-70
2022/08/13 00:19:49;;;;;;;1.73;1.63;;;12.90;60.00;;;;;;4179075;28;20275;-71
2022/08/13 00:21:50;;;;;;;2.57;2.47;;;12.90;60.50;;;;;;4178679;28;20184;-72
2022/08/13 00:23:57;;;;;;;1.87;1.60;;;12.80;60.90;;;;;;4182475;28;20809;-72
2022/08/13 00:25:58;;;;;;;1.47;1.37;;;12.80;60.70;;;;;;4181077;28;20265;-72
2022/08/13 00:28:02;;;;;;;1.40;1.30;;;12.80;60.80;;;;;;4182490;28;20621;-72
2022/08/13 00:30:05;;;;;;;2.10;1.50;;;12.70;60.60;;;;;;4182259;28;20976;-72
2022/08/13 00:32:06;;;;;;;5.00;1.60;;;12.70;60.80;;;;;;4181775;28;20177;-72
2022/08/13 00:34:07;;;;;;;1.43;1.33;;;12.70;60.80;;;;;;4182479;28;20187;-72
2022/08/13 00:36:08;;;;;;;1.80;1.70;;;12.60;60.90;;;;;;4182562;28;20313;-72
2022/08/13 00:38:22;;;;;;;3.17;1.70;;;12.60;60.80;;;;;;4182381;28;20183;-72
2022/08/13 00:40:27;;;;;;;1.30;1.20;;;12.60;61.00;;;;;;4181660;28;20233;-72
2022/08/13 00:42:28;;;;;;;1.43;1.30;;;12.50;62.50;;;;;;4171070;28;20295;-73
2022/08/13 00:44:31;;;;;;;2.50;1.50;;;12.50;61.80;;;;;;4164716;28;20188;-73
2022/08/13 00:46:32;;;;;;;2.90;1.40;;;12.40;62.00;;;;;;4165727;28;20184;-72
2022/08/13 00:48:42;;;;;;;2.00;1.57;;;12.50;62.00;;;;;;4164240;28;20275;-72
2022/08/13 00:50:43;;;;;;;2.90;1.43;;;12.50;61.90;;;;;;4165332;28;20172;-72
2022/08/13 00:52:45;;;;;;;3.57;2.77;;;12.40;62.00;;;;;;4164318;28;20596;-71
2022/08/13 00:54:48;;;;;;;1.70;1.60;;;12.40;62.10;;;;;;4165495;28;20215;-71
2022/08/13 00:56:52;;;;;;;1.90;1.30;;;12.30;62.50;;;;;;4165454;28;20267;-71
2022/08/13 00:58:53;;;;;;;1.63;1.40;;;12.20;62.80;;;;;;4165264;28;20235;-71
2022/08/13 01:00:57;;;;;;;1.50;1.40;;;12.20;64.40;;;;;;4164997;28;20236;-71
2022/08/13 01:02:58;;;;;;;1.50;1.40;;;12.10;63.50;;;;;;4179862;28;20200;-72
2022/08/13 01:05:01;;;;;;;1.70;1.60;;;12.20;63.60;;;;;;4181915;28;20265;-71
2022/08/13 01:07:04;;;;;;;2.53;1.67;;;12.20;63.60;;;;;;4181868;28;20192;-70
2022/08/13 01:09:08;;;;;;;1.80;1.53;;;12.10;64.80;;;;;;4180516;28;20278;-72
2022/08/13 01:11:13;;;;;;;1.80;1.47;;;12.10;63.80;;;;;;4179778;28;20200;-73
2022/08/13 01:13:18;;;;;;;2.03;1.43;;;12.10;63.90;;;;;;4181799;28;20326;-72
2022/08/13 01:15:19;;;;;;;1.40;1.30;;;12.10;64.10;;;;;;4182209;28;20599;-73
2022/08/13 01:17:22;;;;;;;1.50;1.40;;;12.10;63.80;;;;;;4182016;28;20222;-72
2022/08/13 01:19:24;;;;;;;1.73;1.50;;;12.10;63.70;;;;;;4181471;28;20233;-71
2022/08/13 01:21:30;;;;;;;1.33;1.23;;;12.10;63.90;;;;;;4180865;28;20593;-72
2022/08/13 01:23:31;;;;;;;3.53;2.00;;;12.00;64.50;;;;;;4181702;28;20222;-72
2022/08/13 01:25:32;;;;;;;1.97;1.73;;;12.00;64.70;;;;;;4181415;28;20187;-71
2022/08/13 01:27:39;;;;;;;2.70;1.80;;;12.10;64.80;;;;;;4181589;28;20244;-71
2022/08/13 01:29:40;;;;;;;2.10;1.90;;;12.10;64.90;;;;;;4181620;28;20180;-71
2022/08/13 01:31:42;;;;;;;2.17;2.07;;;12.00;64.80;;;;;;4180880;28;20199;-72
2022/08/13 01:33:44;;;;;;;3.90;1.77;;;11.90;65.00;;;;;;4181470;28;20214;-72
2022/08/13 01:35:46;;;;;;;2.37;2.23;;;11.90;65.00;;;;;;4180103;28;20231;-72
2022/08/13 01:37:53;;;;;;;2.40;2.17;;;11.90;65.40;;;;;;4181369;28;20222;-73
2022/08/13 01:39:53;;;;;;;3.63;1.67;;;11.80;65.80;;;;;;4181360;28;20620;-72
2022/08/13 01:41:55;;;;;;;1.83;1.73;;;11.70;66.00;;;;;;4180523;28;20216;-72
2022/08/13 01:44:04;;;;;;;1.70;1.60;;;11.70;67.50;;;;;;4181602;28;20194;-72
2022/08/13 01:46:06;;;;;;;2.17;1.70;;;11.70;66.80;;;;;;4181276;28;20981;-72
2022/08/13 01:50:31;;;;;;;2.80;1.70;;;11.50;67.10;;;;;;4180764;28;20241;-71
2022/08/13 01:52:33;;;;;;;5.27;2.00;;;11.50;67.50;;;;;;4181142;28;20211;-72
2022/08/13 01:54:36;;;;;;;2.50;2.30;;;11.40;68.20;;;;;;4181114;28;20640;-71
2022/08/13 01:56:37;;;;;;;2.33;2.13;;;11.40;68.50;;;;;;4181246;28;20190;-73
2022/08/13 01:58:38;;;;;;;3.13;2.93;;;11.40;68.50;;;;;;4180775;28;20275;-72
2022/08/13 02:00:43;;;;;;;5.13;2.23;;;11.30;68.50;;;;;;4180412;28;20524;-72
2022/08/13 02:02:44;;;;;;;1.43;1.33;;;11.30;68.80;;;;;;4179705;28;20657;-72
2022/08/13 02:04:46;;;;;;;2.13;2.03;;;11.30;68.90;;;;;;4179664;28;20188;-72
2022/08/13 02:06:48;;;;;;;2.17;2.03;;;11.30;69.00;;;;;;4180963;28;20179;-72
2022/08/13 02:08:50;;;;;;;2.00;1.70;;;11.30;68.80;;;;;;4180826;28;20230;-72
2022/08/13 02:10:53;;;;;;;2.17;2.07;;;11.20;69.00;;;;;;4179018;28;20326;-73
2022/08/13 02:12:54;;;;;;;2.13;1.87;;;11.10;69.30;;;;;;4179930;28;20208;-72
2022/08/13 02:14:58;;;;;;;1.83;1.73;;;10.90;70.20;;;;;;4180723;28;20240;-72
2022/08/13 02:17:24;;;;;;;1.83;1.73;;;10.90;71.00;;;;;;4180669;28;20271;-73
2022/08/13 02:19:24;;;;;;;3.40;1.90;;;10.90;71.10;;;;;;4180660;28;20690;-75
2022/08/13 02:21:30;;;;;;;2.50;2.30;;;10.90;71.60;;;;;;4180040;28;20218;-72
2022/08/13 02:23:33;;;;;;;4.50;1.97;;;10.90;72.80;;;;;;4180816;28;20195;-72
2022/08/13 02:25:36;;;;;;;1.80;1.70;;;10.90;72.00;;;;;;4180469;28;20182;-72
2022/08/13 02:27:36;;;;;;;1.73;1.63;;;11.00;72.00;;;;;;4180446;28;20243;-72
2022/08/13 02:29:37;;;;;;;1.80;1.70;;;11.00;71.80;;;;;;4180512;28;20211;-72
2022/08/13 02:31:42;;;;;;;1.60;1.50;;;11.00;71.60;;;;;;4174647;28;22732;-72
2022/08/13 02:33:42;;;;;;;1.70;1.60;;;11.00;72.00;;;;;;4173550;28;20238;-72
2022/08/13 02:35:44;;;;;;;3.03;1.70;;;11.00;71.80;;;;;;4178783;28;20565;-72
2022/08/13 02:37:47;;;;;;;1.70;1.60;;;11.00;71.90;;;;;;4180732;28;20196;-72
2022/08/13 02:39:52;;;;;;;1.60;1.50;;;10.90;72.10;;;;;;4180599;28;20281;-72
2022/08/13 02:41:54;;;;;;;1.70;1.60;;;10.90;72.30;;;;;;4179330;28;20187;-71
2022/08/13 02:43:56;;;;;;;2.10;1.77;;;10.90;72.10;;;;;;4180462;28;20685;-72
2022/08/13 02:45:57;;;;;;;1.50;1.40;;;10.80;72.10;;;;;;4179159;28;20184;-72
2022/08/13 02:47:58;;;;;;;1.83;1.70;;;10.80;72.40;;;;;;4179091;28;20187;-72
2022/08/13 02:49:59;;;;;;;2.10;1.90;;;10.80;72.40;;;;;;4179109;28;20697;-71
2022/08/13 02:52:01;;;;;;;3.27;1.90;;;10.70;72.70;;;;;;4166955;28;20191;-72
2022/08/13 02:54:01;;;;;;;3.27;2.00;;;10.70;73.20;;;;;;4163699;28;20694;-72
2022/08/13 02:56:05;;;;;;;1.83;1.70;;;10.60;73.50;;;;;;4163647;28;20269;-72
2022/08/13 02:58:07;;;;;;;1.93;1.70;;;10.60;74.00;;;;;;4170221;28;20182;-72
2022/08/13 03:00:08;;;;;;;1.50;1.40;;;10.50;74.00;;;;;;4179943;28;20186;-72
2022/08/13 03:02:10;;;;;;;3.80;1.50;;;10.60;73.90;;;;;;4179262;28;20190;-72
2022/08/13 03:04:10;;;;;;;1.80;1.60;;;10.70;74.50;;;;;;4180050;28;20188;-72
2022/08/13 03:06:11;;;;;;;1.70;1.60;;;10.60;74.30;;;;;;4179934;28;20432;-72
2022/08/13 03:08:12;;;;;;;1.50;1.40;;;10.70;74.40;;;;;;4178778;28;20190;-72
2022/08/13 03:10:14;;;;;;;2.10;1.90;;;10.60;74.30;;;;;;4179415;28;20244;-71
2022/08/13 03:12:16;;;;;;;2.17;1.90;;;10.60;74.80;;;;;;4179451;28;20215;-72
2022/08/13 03:14:18;;;;;;;1.70;1.60;;;10.50;75.40;;;;;;4178431;28;20236;-72
2022/08/13 03:16:23;;;;;;;2.70;2.00;;;10.50;75.30;;;;;;4180341;28;20656;-72
2022/08/13 03:18:24;;;;;;;1.80;1.70;;;10.40;75.50;;;;;;4180306;28;20508;-72
2022/08/13 03:20:25;;;;;;;3.37;1.93;;;10.40;75.50;;;;;;4178862;28;20222;-72
2022/08/13 03:22:25;;;;;;;1.70;1.60;;;10.30;76.10;;;;;;4179817;28;20194;-71
2022/08/13 03:24:26;;;;;;;1.83;1.73;;;10.20;76.40;;;;;;4179789;28;20529;-71
2022/08/13 03:26:27;;;;;;;1.70;1.57;;;10.30;76.50;;;;;;4179794;28;20211;-72
2022/08/13 03:28:27;;;;;;;1.83;1.73;;;10.20;76.80;;;;;;4179578;28;20249;-73
2022/08/13 03:30:34;;;;;;;1.70;1.60;;;10.20;76.70;;;;;;4178593;28;20200;-72
2022/08/13 03:32:40;;;;;;;2.33;1.60;;;10.20;76.80;;;;;;4179743;28;20210;-72
2022/08/13 03:34:41;;;;;;;2.07;1.47;;;10.10;77.10;;;;;;4179853;28;20251;-71
2022/08/13 03:36:42;;;;;;;2.13;1.93;;;10.20;77.80;;;;;;4179577;28;20645;-72
2022/08/13 03:38:43;;;;;;;1.63;1.53;;;10.20;78.00;;;;;;4178275;28;20215;-73
2022/08/13 03:41:02;;;;;;;2.13;1.87;;;10.10;78.40;;;;;;4177192;28;20217;-72
2022/08/13 03:43:08;;;;;;;1.63;1.53;;;10.10;78.80;;;;;;4179440;28;20285;-73
2022/08/13 03:45:10;;;;;;;2.83;1.70;;;10.10;79.10;;;;;;4179435;28;20258;-73
2022/08/13 03:47:13;;;;;;;2.30;2.10;;;10.10;79.00;;;;;;4179127;28;20831;-73
2022/08/13 03:49:14;;;;;;;1.50;1.40;;;10.10;79.30;;;;;;4179396;28;20423;-72
2022/08/13 03:51:17;;;;;;;2.63;2.23;;;10.10;79.10;;;;;;4178919;28;20201;-73
2022/08/13 03:53:20;;;;;;;2.87;2.03;;;10.00;79.50;;;;;;4178020;28;20305;-72
2022/08/13 03:55:21;;;;;;;2.13;1.83;;;10.00;79.20;;;;;;4177854;28;20535;-72
2022/08/13 03:57:22;;;;;;;1.67;1.57;;;10.00;79.20;;;;;;4179152;28;20427;-72
2022/08/13 03:59:22;;;;;;;2.03;1.93;;;10.00;79.50;;;;;;4179088;28;20427;-72
2022/08/13 04:01:23;;;;;;;2.23;1.80;;;9.90;79.60;;;;;;4178150;28;20219;-73
2022/08/13 04:03:28;;;;;;;3.60;1.90;;;10.00;80.00;;;;;;4179285;28;20192;-73
2022/08/13 04:05:30;;;;;;;1.87;1.60;;;10.10;79.90;;;;;;4177824;28;20640;-73
2022/08/13 04:07:30;;;;;;;2.10;1.90;;;10.10;79.90;;;;;;4179334;28;20189;-73
2022/08/13 04:09:31;;;;;;;1.87;1.73;;;10.10;79.80;;;;;;4179068;28;20907;-73
2022/08/13 04:11:31;;;;;;;2.00;1.80;;;10.10;79.60;;;;;;4178258;28;20843;-72
2022/08/13 04:13:41;;;;;;;3.50;1.80;;;10.10;79.90;;;;;;4179047;28;20208;-72
2022/08/13 04:15:46;;;;;;;2.00;1.57;;;10.00;80.40;;;;;;4178810;28;20669;-73
2022/08/13 04:17:47;;;;;;;1.87;1.70;;;10.00;80.70;;;;;;4177541;28;20956;-72
2022/08/13 04:19:47;;;;;;;2.47;2.10;;;10.00;80.60;;;;;;4175659;28;20449;-72
2022/08/13 04:21:48;;;;;;;2.70;1.83;;;10.00;80.80;;;;;;4177965;28;20231;-72
2022/08/13 04:23:52;;;;;;;2.23;1.80;;;9.90;81.00;;;;;;4178578;28;20250;-72
2022/08/13 04:25:54;;;;;;;2.03;1.83;;;9.90;81.20;;;;;;4177946;28;20181;-72
2022/08/13 04:27:54;;;;;;;2.00;1.80;;;9.90;81.10;;;;;;4177444;28;20424;-72
2022/08/13 04:29:55;;;;;;;2.53;2.13;;;9.90;81.60;;;;;;4178815;28;20813;-73
2022/08/13 04:31:56;;;;;;;4.50;1.97;;;9.90;81.40;;;;;;4178380;28;20639;-72
2022/08/13 04:33:57;;;;;;;2.20;2.00;;;9.90;81.30;;;;;;4178807;28;20188;-71
2022/08/13 04:35:58;;;;;;;3.40;2.30;;;9.90;81.20;;;;;;4177740;28;20431;-72
2022/08/13 04:37:58;;;;;;;3.87;2.37;;;9.90;81.80;;;;;;4178972;28;20193;-71
2022/08/13 04:39:59;;;;;;;2.57;2.03;;;9.90;81.70;;;;;;4178657;28;20207;-71
2022/08/13 04:42:00;;;;;;;2.83;1.93;;;10.00;81.50;;;;;;4176812;28;20190;-73
2022/08/13 04:44:00;;;;;;;2.80;1.90;;;9.90;81.30;;;;;;4178854;28;20176;-74
2022/08/13 04:46:01;;;;;;;2.20;2.00;;;9.90;81.30;;;;;;4164500;28;20516;-73
2022/08/13 04:48:12;;;;;;;5.17;2.10;;;9.90;81.30;;;;;;4162095;28;20186;-74
2022/08/13 04:50:14;;;;;;;2.43;1.90;;;9.90;81.10;;;;;;4161826;28;20199;-73
2022/08/13 04:52:15;;;;;;;2.30;1.97;;;10.00;80.80;;;;;;4169618;28;20468;-72
2022/08/13 04:54:16;;;;;;;2.80;2.20;;;10.00;81.10;;;;;;4178678;28;20432;-72
2022/08/13 04:56:17;;;;;;;2.00;1.90;;;10.10;80.90;;;;;;4178766;28;20182;-72
2022/08/13 04:58:18;;;;;;;2.07;1.87;;;10.00;80.90;;;;;;4178665;28;20430;-72
2022/08/13 05:00:20;;;;;;;2.20;2.00;;;10.10;80.80;;;;;;4177973;28;20818;-73
2022/08/13 05:02:21;;;;;;;3.60;2.10;;;10.10;80.90;;;;;;4178622;28;20304;-72
2022/08/13 05:04:22;;;;;;;2.37;2.17;;;10.10;81.20;;;;;;4178648;28;20199;-73
2022/08/13 05:06:23;;;;;;;3.37;2.03;;;10.10;81.00;;;;;;4178477;28;20194;-73
2022/08/13 05:08:23;;;;;;;2.40;2.10;;;10.10;80.80;;;;;;4178466;28;20179;-73
2022/08/13 05:10:24;;;;;;;2.03;1.90;;;10.20;81.00;;;;;;4179163;28;20583;-73
2022/08/13 05:12:25;;;;;;;2.23;2.00;;;10.20;80.70;;;;;;4181469;28;20199;-73
2022/08/13 05:14:25;;;;;;;2.20;1.93;;;10.20;80.70;;;;;;4181681;28;20225;-73
2022/08/13 05:16:26;;;;;;;2.20;2.00;;;10.20;80.60;;;;;;4182169;28;20643;-74
2022/08/13 05:18:29;;;;;;;1.77;1.60;;;10.30;80.80;;;;;;4182742;28;20176;-73
2022/08/13 05:20:29;;;;;;;2.33;2.13;;;10.30;81.50;;;;;;4181134;28;20835;-73
2022/08/13 05:22:30;;;;;;;2.77;1.80;;;10.30;81.80;;;;;;4181505;28;20471;-73
2022/08/13 05:24:32;;;;;;;2.10;1.93;;;10.40;81.90;;;;;;4181349;28;20187;-73
2022/08/13 05:26:32;;;;;;;2.07;1.80;;;10.50;82.00;;;;;;4181271;28;20178;-73
2022/08/13 05:28:34;;;;;;;3.63;1.90;;;10.50;80.80;;;;;;4181352;28;20206;-73
2022/08/13 05:30:39;;;;;;;1.97;1.77;;;10.60;80.30;;;;;;4180565;28;20222;-73
2022/08/13 05:32:39;;;;;;;4.63;1.83;;;10.70;79.70;;;;;;4181509;28;20223;-72
2022/08/13 05:34:40;;;;;;;1.97;1.80;;;10.70;79.50;;;;;;4181344;28;20191;-73
2022/08/13 05:36:43;;;;;;;2.30;2.10;;;10.70;79.80;;;;;;4181316;28;20239;-72
2022/08/13 05:38:43;;;;;;;2.20;2.00;;;10.80;79.30;;;;;;4181217;28;20195;-72
2022/08/13 05:40:44;;;;;;;4.17;2.30;;;10.80;79.30;;;;;;4180417;28;20292;-72
2022/08/13 05:42:44;;;;;;;2.47;2.27;;;10.80;79.30;;;;;;4181051;28;20203;-72
2022/08/13 05:44:48;;;;;;;2.13;2.00;;;10.80;79.20;;;;;;4181203;28;20197;-72
2022/08/13 05:46:49;;;;;;;2.53;2.27;;;10.90;79.40;;;;;;4181229;28;20187;-72
2022/08/13 05:48:56;;;;;;;2.30;2.10;;;11.00;80.30;;;;;;4180938;28;20267;-72
2022/08/13 05:51:03;;;;;;;3.20;2.10;;;11.00;79.90;;;;;;4180260;28;20171;-72
2022/08/13 05:53:09;;;;;;;2.50;2.30;;;11.10;79.80;;;;;;4179665;28;20254;-72
2022/08/13 05:55:12;;;;;;;2.43;2.23;;;11.20;80.00;;;;;;4180755;28;20541;-72
2022/08/13 05:57:14;;;;;;;2.40;2.13;;;11.30;79.70;;;;;;4180954;28;20565;-72
2022/08/13 06:03:52;;;;;;;2.40;2.20;;;11.40;80.60;;;;;;4180874;28;20798;-73
2022/08/13 06:06:02;;;;;;;2.93;2.37;;;11.50;81.30;;;;;;4180638;28;20192;-73
2022/08/13 06:08:04;;;;;;;7.63;6.93;;;11.60;81.10;;;;;;4180675;28;20180;-73
2022/08/13 06:10:06;;;;;;;2.20;2.00;;;11.80;81.60;;;;;;4180485;28;20252;-72
2022/08/13 06:12:08;;;;;;;2.83;2.63;;;11.90;82.30;;;;;;4179820;28;20237;-72
2022/08/13 06:14:08;;;;;;;2.87;2.37;;;11.90;82.30;;;;;;4180557;28;20184;-73
2022/08/13 06:16:11;;;;;;;2.47;2.27;;;12.00;82.00;;;;;;4180557;28;20177;-72
2022/08/13 06:18:12;;;;;;;2.63;2.43;;;12.10;81.80;;;;;;4180610;28;20190;-73
2022/08/13 06:20:13;;;;;;;4.07;3.77;;;12.20;81.30;;;;;;4179838;28;20191;-73
2022/08/13 06:22:14;;;;;;;2.93;2.73;;;12.30;81.40;;;;;;4180225;28;20214;-72
2022/08/13 06:24:15;;;;;;;3.47;2.23;;;12.50;80.60;;;;;;4179079;28;20185;-72
2022/08/13 06:26:17;;;;;;;2.50;2.30;;;12.60;81.60;;;;;;4180316;28;20179;-73
2022/08/13 06:28:23;;;;;;;3.00;2.80;;;12.60;81.60;;;;;;4178904;28;20184;-73
2022/08/13 06:30:25;;;;;;;3.47;3.20;;;12.80;80.90;;;;;;4178132;28;20208;-72
2022/08/13 06:32:29;;;;;;;2.73;2.53;;;12.90;80.60;;;;;;4180458;28;20200;-72
2022/08/13 06:34:34;;;;;;;2.30;2.10;;;13.10;79.10;;;;;;4180369;28;20284;-73
2022/08/13 06:36:37;;;;;;;3.03;2.73;;;13.20;78.90;;;;;;4169759;28;20219;-73
2022/08/13 06:38:43;;;;;;;4.50;3.23;;;13.40;77.80;;;;;;4179528;28;20532;-72
2022/08/13 06:40:45;;;;;;;2.33;2.20;;;13.60;76.90;;;;;;4169393;28;20625;-72
2022/08/13 06:42:46;;;;;;;3.13;2.37;;;13.80;76.20;;;;;;4163497;28;20204;-73
2022/08/13 06:44:47;;;;;;;2.43;2.23;;;13.90;75.60;;;;;;4163512;28;20208;-73
2022/08/13 06:46:48;;;;;;;3.00;1.90;;;13.90;75.60;;;;;;4163534;28;20208;-73
2022/08/13 06:48:49;;;;;;;4.90;4.57;;;14.00;74.90;;;;;;4163514;28;20243;-73
2022/08/13 06:50:50;;;;;;;2.63;2.43;;;14.10;74.40;;;;;;4161722;28;20275;-73
2022/08/13 06:52:51;;;;;;;3.50;3.30;;;14.60;72.20;;;;;;4167453;28;20286;-73
2022/08/13 06:54:51;;;;;;;2.33;2.13;;;14.80;71.10;;;;;;4178532;28;20672;-72
2022/08/13 06:56:54;;;;;;;2.30;2.10;;;15.00;69.90;;;;;;4179925;28;20188;-73
2022/08/13 06:58:58;;;;;;;2.57;1.90;;;15.10;68.80;;;;;;4179849;28;20325;-73
2022/08/13 07:00:59;;;;;;;3.43;2.10;;;15.10;69.10;;;;;;4179266;28;20661;-73
2022/08/13 07:03:02;;;;;;;12.33;11.23;;;15.30;67.70;;;;;;4181048;28;20222;-73
2022/08/13 07:05:04;;;;;;;3.27;2.27;;;15.30;67.90;;;;;;4178669;28;20684;-73
2022/08/13 07:07:06;;;;;;;2.27;2.13;;;15.50;66.80;;;;;;4179880;28;20177;-73
2022/08/13 07:09:07;;;;;;;7.57;7.07;;;15.50;66.10;;;;;;4178806;28;20218;-73
2022/08/13 07:11:24;;;;;;;2.20;2.00;;;15.70;65.60;;;;;;4177834;28;20195;-73
2022/08/13 07:13:25;;;;;;;2.40;2.20;;;15.90;64.80;;;;;;4163980;28;20213;-73
2022/08/13 07:15:26;;;;;;;4.37;4.13;;;16.00;63.60;;;;;;4178246;28;20187;-73
2022/08/13 07:17:28;;;;;;;2.33;2.10;;;16.20;62.80;;;;;;4162405;28;20193;-73
2022/08/13 07:19:29;;;;;;;3.97;3.00;;;16.50;61.00;;;;;;4179581;28;20226;-73
2022/08/13 07:21:32;;;;;;;2.80;1.90;;;16.60;61.00;;;;;;4178045;28;20220;-73
2022/08/13 07:23:32;;;;;;;2.13;1.93;;;16.70;59.90;;;;;;4178524;28;20211;-73
2022/08/13 07:25:35;;;;;;;2.70;2.50;;;16.70;59.70;;;;;;4178360;28;20172;-72
2022/08/13 07:27:41;;;;;;;2.90;2.67;;;16.80;59.20;;;;;;4179550;28;20184;-73
2022/08/13 07:29:42;;;;;;;241.93;220.47;;;17.00;57.60;;;;;;4161677;28;20244;-72
2022/08/13 07:31:42;;;;;;;3.70;3.50;;;17.10;58.10;;;;;;4160816;28;20662;-73
2022/08/13 07:33:54;;;;;;;4.07;3.77;;;17.10;58.50;;;;;;4161605;28;20306;-73
2022/08/13 07:35:54;;;;;;;3.43;3.20;;;17.20;57.80;;;;;;4178268;28;20210;-73
2022/08/13 07:37:55;;;;;;;6.53;5.93;;;17.30;56.70;;;;;;4178137;28;20195;-73
2022/08/13 07:39:59;;;;;;;2.40;1.87;;;17.50;55.20;;;;;;4178191;28;20187;-73
2022/08/13 07:42:01;;;;;;;15.83;14.17;;;17.60;55.10;;;;;;4177408;28;20219;-73
2022/08/13 07:44:02;;;;;;;2.37;2.20;;;17.80;54.60;;;;;;4179625;28;20209;-72
2022/08/13 07:46:07;;;;;;;2.97;2.77;;;17.90;53.40;;;;;;4178099;28;20181;-73
2022/08/13 07:48:09;;;;;;;3.07;2.73;;;18.00;53.80;;;;;;4179445;28;20192;-73
2022/08/13 07:50:10;;;;;;;5.20;3.60;;;18.20;52.90;;;;;;4177940;28;20299;-73
2022/08/13 07:52:13;;;;;;;4.87;4.47;;;18.30;52.30;;;;;;4173669;28;20202;-73
2022/08/13 07:54:15;;;;;;;10.57;10.03;;;18.40;51.70;;;;;;4169510;28;20279;-73
2022/08/13 07:56:29;;;;;;;15.00;13.97;;;18.70;50.10;;;;;;4169401;28;20203;-73
2022/08/13 07:58:35;;;;;;;7.73;7.13;;;18.90;48.60;;;;;;4170518;28;20664;-73
2022/08/13 08:00:36;;;;;;;4.33;4.07;;;19.00;49.00;;;;;;4168689;28;20311;-73
2022/08/13 08:02:39;;;;;;;2.97;2.13;;;19.10;47.70;;;;;;4169394;28;20242;-74
2022/08/13 08:04:41;;;;;;;1.80;1.70;;;19.20;46.90;;;;;;4169501;28;20671;-73
2022/08/13 08:06:47;;;;;;;2.03;1.87;;;19.30;46.40;;;;;;4169349;28;20620;-73
2022/08/13 08:08:52;;;;;;;3.60;2.83;;;19.50;46.60;;;;;;4169126;28;20583;-73
2022/08/13 08:10:57;;;;;;;17.77;16.73;;;19.70;45.70;;;;;;4168458;28;20692;-73
2022/08/13 08:12:59;;;;;;;6.93;6.13;;;19.80;45.00;;;;;;4159428;28;20200;-74
2022/08/13 08:15:01;;;;;;;3.53;1.83;;;19.80;46.00;;;;;;4176220;28;20253;-73
2022/08/13 08:17:05;;;;;;;2.60;2.43;;;19.60;44.00;;;;;;4169064;28;20876;-74
2022/08/13 08:19:06;;;;;;;3.83;3.57;;;19.70;44.50;;;;;;4168866;28;20180;-73
2022/08/13 08:21:08;;;;;;;2.20;2.10;;;19.90;44.80;;;;;;4176393;28;20703;-73
2022/08/13 08:23:11;;;;;;;350.80;243.67;;;20.00;43.30;;;;;;4169066;28;20227;-73
2022/08/13 08:25:18;;;;;;;4.40;2.73;;;20.10;43.30;;;;;;4170508;28;20674;-73
2022/08/13 08:27:24;;;;;;;1.97;1.57;;;20.30;43.70;;;;;;4152731;28;20236;-73
2022/08/13 08:29:25;;;;;;;1.90;1.80;;;20.20;42.60;;;;;;4171828;28;20185;-74
2022/08/13 08:31:27;;;;;;;3.60;3.40;;;20.50;42.30;;;;;;4166941;28;20216;-73
2022/08/13 08:33:28;;;;;;;393.10;219.57;;;20.60;41.40;;;;;;4169026;28;20208;-73
2022/08/13 08:35:30;;;;;;;2.60;2.40;;;20.60;41.10;;;;;;4162708;28;20219;-73
2022/08/13 08:44:34;;;;;;;4.37;2.87;;;21.00;40.50;;;;;;4162401;28;20175;-73
2022/08/13 08:46:35;;;;;;;9.23;8.73;;;21.20;39.80;;;;;;4147810;28;20592;-73
2022/08/13 08:48:36;;;;;;;2.57;2.43;;;21.30;40.10;;;;;;4164169;28;20192;-72
2022/08/13 08:50:37;;;;;;;23.80;22.00;;;21.20;39.50;;;;;;4163392;28;20193;-73
2022/08/13 08:54:57;;;;;;;10.93;10.13;;;21.10;39.30;;;;;;4164198;28;20860;-72
2022/08/13 08:56:59;;;;;;;3.53;3.23;;;21.20;38.80;;;;;;4163922;28;20193;-72
2022/08/13 08:59:01;;;;;;;2.23;2.00;;;21.40;38.30;;;;;;4163940;28;20193;-72
2022/08/13 09:01:03;;;;;;;4.47;3.77;;;21.60;38.20;;;;;;4188479;28;20203;-72
2022/08/13 09:03:05;;;;;;;5.97;5.63;;;21.60;38.00;;;;;;4166118;28;20224;-72
2022/08/13 09:05:13;;;;;;;5.87;5.47;;;21.70;37.70;;;;;;4164129;28;20256;-72
2022/08/13 09:07:17;;;;;;;3.80;3.50;;;22.20;37.30;;;;;;4164101;28;20578;-72
2022/08/13 09:09:20;;;;;;;51.27;46.60;;;22.00;36.70;;;;;;4165374;28;20273;-72
2022/08/13 09:11:21;;;;;;;57.27;53.40;;;22.00;37.00;;;;;;4179902;28;20270;-73
2022/08/13 09:13:22;;;;;;;2.10;2.00;;;21.90;37.40;;;;;;4180283;28;20270;-72
2022/08/13 09:15:23;;;;;;;29.90;28.00;;;22.00;37.30;;;;;;4163832;28;20193;-72
2022/08/13 09:17:26;;;;;;;25.13;23.37;;;22.10;35.90;;;;;;4179990;28;20180;-74
2022/08/13 09:19:27;;;;;;;2.43;2.30;;;22.20;36.30;;;;;;4163769;28;20231;-75
2022/08/13 09:21:28;;;;;;;2.27;2.07;;;22.30;34.90;;;;;;4164513;28;20213;-74
2022/08/13 09:23:32;;;;;;;22.90;20.63;;;22.40;35.70;;;;;;4171470;28;20196;-75
2022/08/13 09:25:35;;;;;;;7.07;6.73;;;22.60;35.60;;;;;;4171670;28;20184;-74
2022/08/13 09:27:36;;;;;;;2.20;2.10;;;22.70;35.10;;;;;;4172502;28;20748;-74
2022/08/13 09:29:37;;;;;;;3.00;2.80;;;22.90;35.30;;;;;;4171298;28;20177;-75
2022/08/13 09:31:44;;;;;;;4.03;3.83;;;23.00;34.60;;;;;;4179020;28;20184;-75
2022/08/13 09:33:44;;;;;;;10.77;10.07;;;23.10;34.40;;;;;;4179239;28;20208;-75
2022/08/13 09:35:48;;;;;;;6.67;5.87;;;23.20;34.70;;;;;;4177848;28;20187;-75
2022/08/13 09:37:50;;;;;;;4.73;4.33;;;23.40;34.20;;;;;;4179972;28;20681;-74
2022/08/13 09:39:54;;;;;;;15.73;14.77;;;23.40;34.00;;;;;;4179828;28;20260;-74
2022/08/13 09:41:56;;;;;;;29.77;27.77;;;23.50;33.50;;;;;;4179142;28;20727;-72
2022/08/13 09:43:57;;;;;;;26.03;24.20;;;23.40;33.00;;;;;;4179706;28;20176;-71
2022/08/13 09:45:58;;;;;;;120.77;112.13;;;23.60;32.90;;;;;;4180963;28;20187;-72
2022/08/13 09:47:59;;;;;;;3.23;2.00;;;23.60;32.90;;;;;;4170718;28;20653;-71
2022/08/13 09:50:00;;;;;;;4.33;4.03;;;23.90;33.60;;;;;;4179395;28;20197;-73
2022/08/13 09:52:01;;;;;;;4.73;4.33;;;24.10;31.90;;;;;;4179931;28;20557;-73
2022/08/13 09:54:05;;;;;;;4.77;2.03;;;23.70;33.00;;;;;;4179356;28;20188;-73
2022/08/13 09:56:06;;;;;;;30.57;28.37;;;24.30;33.20;;;;;;4161982;28;20918;-72
2022/08/13 09:58:08;;;;;;;6.23;4.40;;;24.30;31.00;;;;;;4178946;28;20211;-71
2022/08/13 10:00:14;;;;;;;7.97;7.47;;;24.30;30.90;;;;;;4178858;28;20274;-74
2022/08/13 10:02:15;;;;;;;9.90;9.37;;;24.40;30.70;;;;;;4178593;28;20985;-72
2022/08/13 10:04:18;;;;;;;2.13;1.97;;;24.20;30.20;;;;;;4180361;28;20246;-74
2022/08/13 10:06:19;;;;;;;10.47;9.50;;;24.40;30.20;;;;;;4162565;28;20184;-71
2022/08/13 10:08:20;;;;;;;11.93;11.33;;;24.50;30.30;;;;;;4178927;28;20186;-74
2022/08/13 10:10:22;;;;;;;3.87;3.60;;;24.70;29.80;;;;;;4178478;28;20642;-71
2022/08/13 10:12:23;;;;;;;4.03;3.30;;;25.30;30.60;;;;;;4162543;28;20201;-72
2022/08/13 10:14:23;;;;;;;13.23;12.30;;;25.70;28.70;;;;;;4164676;28;20181;-71
2022/08/13 10:16:24;;;;;;;15.43;14.23;;;25.40;29.90;;;;;;4180364;28;20214;-71
2022/08/13 10:18:27;;;;;;;15.93;14.77;;;25.90;28.90;;;;;;4178949;28;20769;-71
2022/08/13 10:20:36;;;;;;;2.60;2.10;;;25.50;28.70;;;;;;4178365;28;20685;-71
2022/08/13 10:22:36;;;;;;;13.53;12.70;;;25.50;29.30;;;;;;4178991;28;20200;-72
2022/08/13 10:24:37;;;;;;;12.90;12.03;;;25.80;28.90;;;;;;4179494;28;20272;-72
2022/08/13 10:26:40;;;;;;;43.90;40.97;;;25.70;28.20;;;;;;4196054;28;20309;-72
2022/08/13 10:28:41;;;;;;;1.53;1.43;;;25.70;26.90;;;;;;4177785;28;20180;-74
2022/08/13 10:30:42;;;;;;;3.63;3.40;;;25.40;27.70;;;;;;4168847;28;20196;-72
2022/08/13 10:32:43;;;;;;;36.63;34.00;;;26.20;27.00;;;;;;4179897;28;20581;-74
2022/08/13 10:34:44;;;;;;;3.90;3.70;;;26.00;26.40;;;;;;4179751;28;20271;-75
2022/08/13 10:36:44;;;;;;;8.53;8.03;;;26.60;26.30;;;;;;4179750;28;20291;-73
2022/08/13 10:38:45;;;;;;;5.80;5.30;;;26.30;26.10;;;;;;4181116;28;20198;-72
2022/08/13 10:40:47;;;;;;;30.37;28.57;;;26.40;25.20;;;;;;4178750;28;20219;-72
2022/08/13 10:42:48;;;;;;;3.70;2.63;;;25.90;25.70;;;;;;4179519;28;20192;-72
2022/08/13 10:44:52;;;;;;;2.80;1.90;;;25.80;26.00;;;;;;4180719;28;20257;-73
2022/08/13 10:46:52;;;;;;;2.57;2.37;;;25.40;27.00;;;;;;4179443;28;20188;-72
2022/08/13 10:48:55;;;;;;;8.83;8.17;;;25.50;26.20;;;;;;4180424;28;20564;-73
2022/08/13 10:50:56;;;;;;;1.67;1.57;;;25.90;25.70;;;;;;4178491;28;20199;-73
2022/08/13 10:52:58;;;;;;;5.00;2.03;;;25.50;25.90;;;;;;4180292;28;20253;-72